Time;durP1;ratioP1;P1;durP2;ratioP2;P2;SDS_P1;SDS_P2;PMS_P1;PMS_P2;Temp;Humidity;BMP_temperature;BMP_pressure;BME280_temperature;BME280_humidity;BME280_pressure;Samples;Min_cycle;Max_cycle;Signal;HPM_P1;HPM_P2
2022/03/10 00:08:06;;;;;;;27.90;15.60;;;;;;;1.87;68.71;99667.00;432624;1271;111063;-41
2022/03/10 00:18:13;;;;;;;32.30;18.00;;;;;;;1.74;69.09;99673.73;432627;1270;108956;-41
2022/03/10 00:28:22;;;;;;;36.60;17.80;;;;;;;1.57;69.02;99677.00;432480;1270;97902;-43
2022/03/10 00:38:29;;;;;;;27.00;13.90;;;;;;;1.55;69.06;99689.20;432570;1270;111150;-40
2022/03/10 00:58:44;;;;;;;29.90;14.80;;;;;;;1.24;69.29;99712.41;432614;1270;97501;-41
2022/03/10 01:08:52;;;;;;;14.90;8.40;;;;;;;1.00;68.99;99718.70;432577;1270;110954;-44
2022/03/10 01:18:59;;;;;;;16.60;9.70;;;;;;;0.83;68.58;99721.63;432547;1270;108325;-41
2022/03/10 01:29:06;;;;;;;17.30;9.70;;;;;;;0.58;68.15;99724.81;432406;1272;96697;-43
2022/03/10 01:39:13;;;;;;;17.20;10.20;;;;;;;0.27;67.65;99736.74;432406;1272;97906;-42
2022/03/10 01:49:21;;;;;;;12.60;7.70;;;;;;;0.05;67.78;99745.14;432584;1271;111104;-41
2022/03/10 01:59:31;;;;;;;21.90;11.20;;;;;;;-0.02;67.75;99757.00;432469;1271;108884;-43
2022/03/10 02:20:03;;;;;;;24.50;10.90;;;;;;;-0.16;68.19;99774.19;432376;1272;111187;-40
2022/03/10 02:30:11;;;;;;;15.20;10.10;;;;;;;-0.09;68.23;99782.77;433276;1261;108901;-43
2022/03/10 02:40:19;;;;;;;21.20;10.50;;;;;;;-0.04;68.49;99795.66;432717;1271;96677;-41
2022/03/10 02:50:26;;;;;;;14.50;8.20;;;;;;;-0.13;68.15;99801.32;432549;1271;97907;-43
2022/03/10 03:00:31;;;;;;;14.50;7.30;;;;;;;-0.29;67.51;99820.05;432593;1271;111160;-39
2022/03/10 03:10:39;;;;;;;12.70;6.70;;;;;;;-0.39;67.43;99827.30;432525;1271;109249;-42
2022/03/10 03:20:46;;;;;;;12.20;7.00;;;;;;;-0.48;66.56;99849.05;432536;1271;108753;-42
2022/03/10 03:30:53;;;;;;;7.40;4.80;;;;;;;-0.58;66.40;99858.88;432376;1270;97913;-43
2022/03/10 03:41:01;;;;;;;10.00;6.10;;;;;;;-0.71;66.27;99872.08;432400;1271;109313;-42
2022/03/10 03:51:07;;;;;;;12.80;6.10;;;;;;;-0.98;66.02;99883.65;432459;1271;108778;-43
2022/03/10 04:01:15;;;;;;;14.40;7.10;;;;;;;-1.19;65.93;99896.52;432544;1271;97495;-40
2022/03/10 04:11:23;;;;;;;17.30;7.60;;;;;;;-1.38;65.84;99912.66;432677;1270;111088;-42
2022/03/10 04:21:30;;;;;;;15.80;8.00;;;;;;;-1.48;65.74;99919.58;432575;1271;108880;-43
2022/03/10 04:31:38;;;;;;;10.50;6.20;;;;;;;-1.51;65.71;99938.30;432648;1271;98022;-41
2022/03/10 04:41:45;;;;;;;25.10;10.90;;;;;;;-1.65;66.55;99957.57;432650;1271;111140;-43
2022/03/10 04:51:52;;;;;;;23.60;11.60;;;;;;;-1.86;66.50;99974.20;432437;1271;108884;-44
2022/03/10 05:02:00;;;;;;;15.80;8.70;;;;;;;-2.05;66.76;99980.56;432566;1271;108770;-41
2022/03/10 05:12:07;;;;;;;17.20;8.90;;;;;;;-2.11;67.26;99994.64;432443;1271;97921;-42
2022/03/10 05:22:14;;;;;;;20.80;11.50;;;;;;;-2.19;68.22;100002.48;432706;1271;107913;-40
2022/03/10 05:32:21;;;;;;;27.80;13.40;;;;;;;-2.27;68.19;100015.33;432527;1270;107789;-41
2022/03/10 05:42:28;;;;;;;22.90;12.10;;;;;;;-2.30;68.39;100029.73;432693;1271;98012;-42
2022/03/10 05:52:36;;;;;;;17.00;9.30;;;;;;;-2.21;68.76;100039.91;432669;1271;108692;-41
2022/03/10 06:02:43;;;;;;;29.80;13.90;;;;;;;-2.13;69.50;100046.61;432708;1271;97901;-43
2022/03/10 06:12:51;;;;;;;21.90;12.30;;;;;;;-1.90;69.76;100063.23;432487;1271;97906;-40
2022/03/10 06:22:57;;;;;;;20.60;10.80;;;;;;;-1.06;69.79;100078.84;432483;1271;110309;-41
2022/03/10 06:33:03;;;;;;;20.80;11.40;;;;;;;-0.34;69.21;100095.83;432432;1270;108756;-41
2022/03/10 06:43:10;;;;;;;21.10;12.20;;;;;;;0.11;68.10;100109.41;432640;1271;97909;-45
2022/03/10 06:53:18;;;;;;;19.20;11.10;;;;;;;0.40;67.22;100122.96;432545;1271;111293;-43
2022/03/10 07:03:26;;;;;;;20.90;11.90;;;;;;;0.67;66.37;100132.61;432748;1270;108951;-40
2022/03/10 07:23:39;;;;;;;18.90;9.90;;;;;;;0.03;63.61;100146.36;432371;1271;98222;-41
2022/03/10 07:33:44;;;;;;;18.00;10.00;;;;;;;-0.03;63.01;100157.76;432527;1270;111185;-44
2022/03/10 07:43:58;;;;;;;17.10;7.90;;;;;;;0.18;62.10;100163.46;432417;1271;108871;-40
2022/03/10 07:54:43;;;;;;;16.20;9.20;;;;;;;0.24;60.11;100177.38;431008;1271;108459;-43
2022/03/10 08:04:50;;;;;;;18.00;8.40;;;;;;;0.44;59.59;100178.30;432440;1271;97910;-40
2022/03/10 08:14:56;;;;;;;12.80;6.50;;;;;;;0.64;58.00;100183.93;432118;1272;111101;-46
2022/03/10 08:25:03;;;;;;;13.40;6.90;;;;;;;0.57;56.69;100191.30;432159;1272;109241;-42
2022/03/10 08:35:11;;;;;;;12.20;6.40;;;;;;;0.54;55.67;100195.20;432700;1271;108669;-43
2022/03/10 08:45:19;;;;;;;11.50;5.90;;;;;;;0.70;54.54;100198.54;432005;1272;97959;-42
2022/03/10 08:55:24;;;;;;;12.60;6.70;;;;;;;0.85;52.99;100200.70;432557;1271;97909;-40
2022/03/10 09:05:34;;;;;;;12.30;5.50;;;;;;;0.86;52.68;100198.19;432118;1271;453297;-40
2022/03/10 09:15:45;;;;;;;9.20;4.80;;;;;;;0.74;50.75;100194.39;432510;1271;108513;-42
2022/03/10 09:25:52;;;;;;;9.00;5.60;;;;;;;0.69;50.62;100191.65;432805;1271;107695;-43
2022/03/10 09:35:59;;;;;;;8.60;4.40;;;;;;;0.86;49.68;100198.23;431972;1272;97914;-41
2022/03/10 09:46:09;;;;;;;7.20;4.60;;;;;;;1.00;48.98;100202.70;432603;1271;111230;-41
2022/03/10 10:06:22;;;;;;;10.10;5.00;;;;;;;1.35;47.69;100216.42;432015;1272;108612;-41
2022/03/10 10:16:29;;;;;;;9.70;5.40;;;;;;;1.39;47.21;100217.97;432034;1272;97942;-39
2022/03/10 10:26:37;;;;;;;12.20;5.30;;;;;;;1.41;47.14;100217.86;432536;1271;111677;-46
2022/03/10 10:36:46;;;;;;;12.20;5.80;;;;;;;1.53;46.30;100218.30;432126;1272;108961;-43
2022/03/10 10:57:06;;;;;;;12.70;5.50;;;;;;;1.79;46.14;100213.05;431908;1272;98305;-40
2022/03/10 11:07:12;;;;;;;8.70;4.90;;;;;;;2.04;46.34;100210.04;432804;1271;109971;-40
2022/03/10 11:17:20;;;;;;;9.20;5.30;;;;;;;2.30;45.31;100204.42;432587;1271;109011;-40
2022/03/10 11:27:30;;;;;;;12.50;6.10;;;;;;;2.20;44.87;100218.54;432064;1272;108887;-42
2022/03/10 11:37:54;;;;;;;9.80;5.20;;;;;;;2.38;44.70;100220.36;432602;1271;97814;-41
2022/03/10 11:48:32;;;;;;;10.00;4.70;;;;;;;2.39;43.20;100222.91;432517;1271;111378;-41
2022/03/10 11:58:39;;;;;;;6.00;4.60;;;;;;;2.43;42.54;100218.21;432629;1272;108725;-40
2022/03/10 12:09:02;;;;;;;8.60;4.10;;;;;;;2.31;41.84;100216.84;432357;1272;108834;-41
2022/03/10 12:29:15;;;;;;;7.80;4.70;;;;;;;2.57;41.43;100208.02;432611;1272;111068;-42
2022/03/10 12:39:24;;;;;;;11.60;5.30;;;;;;;2.61;40.69;100205.89;432655;1272;108814;-43
2022/03/10 12:49:37;;;;;;;10.80;5.00;;;;;;;2.62;40.29;100203.37;432482;1272;108802;-41
2022/03/10 12:59:44;;;;;;;7.40;4.00;;;;;;;2.61;40.47;100198.48;432517;1272;97903;-41
2022/03/10 13:09:54;;;;;;;10.40;5.00;;;;;;;2.73;40.06;100195.54;432548;1271;110975;-43
2022/03/10 13:20:01;;;;;;;9.60;5.70;;;;;;;2.59;40.10;100191.46;432583;1272;108680;-41
2022/03/10 13:30:16;;;;;;;9.60;5.50;;;;;;;2.70;39.98;100191.48;432719;1272;107752;-41
2022/03/10 13:40:24;;;;;;;12.80;5.80;;;;;;;2.76;39.69;100194.77;432583;1272;96686;-40
2022/03/10 13:50:34;;;;;;;8.60;4.60;;;;;;;2.77;39.86;100189.78;432640;1271;111174;-40
2022/03/10 14:00:40;;;;;;;10.10;5.80;;;;;;;2.64;39.40;100193.48;432572;1272;109688;-41
2022/03/10 14:11:02;;;;;;;12.20;5.10;;;;;;;2.56;39.61;100180.61;432465;1272;108915;-41
2022/03/10 14:21:11;;;;;;;9.60;5.60;;;;;;;2.69;39.49;100178.15;432630;1272;97947;-42
2022/03/10 14:41:31;;;;;;;14.10;5.10;;;;;;;2.52;38.27;100171.06;432482;1271;108855;-42
2022/03/10 14:51:39;;;;;;;9.00;5.60;;;;;;;2.46;38.37;100179.23;432813;1271;108896;-43
2022/03/10 15:11:54;;;;;;;7.50;4.60;;;;;;;2.26;38.52;100179.70;432842;1272;111099;-42
2022/03/10 15:22:01;;;;;;;8.80;5.20;;;;;;;2.08;38.54;100184.48;432566;1272;109035;-41
2022/03/10 15:32:07;;;;;;;11.60;5.50;;;;;;;1.96;38.43;100188.81;432386;1272;108892;-43
2022/03/10 15:42:15;;;;;;;11.20;7.20;;;;;;;1.82;38.57;100193.71;432672;1272;97477;-41
2022/03/10 15:52:23;;;;;;;14.20;7.50;;;;;;;1.70;39.17;100200.14;432556;1272;96614;-41
2022/03/10 16:02:31;;;;;;;10.00;5.10;;;;;;;1.52;38.84;100214.26;432636;1272;111244;-38
2022/03/10 16:12:40;;;;;;;12.60;7.20;;;;;;;1.32;39.35;100220.55;432463;1272;108813;-43
2022/03/10 16:22:47;;;;;;;14.70;7.50;;;;;;;1.11;39.60;100229.63;432708;1272;107801;-40
2022/03/10 16:43:01;;;;;;;12.30;7.20;;;;;;;0.61;40.73;100241.98;432652;1272;111112;-40
2022/03/10 16:53:11;;;;;;;29.10;12.60;;;;;;;0.39;41.28;100241.85;432475;1272;108818;-41
2022/03/10 17:03:19;;;;;;;36.30;15.00;;;;;;;0.15;41.29;100245.24;432612;1272;108895;-43
2022/03/10 17:13:26;;;;;;;36.50;16.00;;;;;;;-0.15;41.73;100263.05;432404;1272;97531;-41
2022/03/10 17:23:36;;;;;;;45.20;18.20;;;;;;;-0.41;42.44;100272.90;432604;1272;111375;-40
2022/03/10 17:33:44;;;;;;;57.30;24.80;;;;;;;-0.60;43.34;100279.58;432640;1272;108876;-42
2022/03/10 18:04:04;;;;;;;69.70;24.30;;;;;;;-1.09;44.83;100298.85;432587;1272;109151;-41
2022/03/10 18:14:13;;;;;;;77.00;28.50;;;;;;;-1.24;45.29;100302.95;432592;1271;97035;-45
2022/03/10 18:24:20;;;;;;;79.90;29.60;;;;;;;-1.46;45.27;100315.14;432545;1271;110622;-41
2022/03/10 18:34:33;;;;;;;71.00;30.50;;;;;;;-1.59;45.72;100313.66;432360;1271;108805;-40
2022/03/10 18:44:43;;;;;;;73.80;30.00;;;;;;;-1.70;46.12;100326.02;432628;1271;97916;-41
2022/03/10 18:54:50;;;;;;;76.20;30.10;;;;;;;-1.88;46.49;100341.11;432370;1271;110288;-42
2022/03/10 19:04:58;;;;;;;71.90;27.90;;;;;;;-2.04;46.66;100346.41;432564;1271;108852;-43
2022/03/10 19:15:04;;;;;;;53.90;22.50;;;;;;;-2.12;47.08;100349.38;432552;1271;98035;-41
2022/03/10 19:25:12;;;;;;;39.80;17.20;;;;;;;-2.20;47.21;100348.55;432530;1272;111147;-39
2022/03/10 19:55:39;;;;;;;49.80;18.60;;;;;;;-2.58;47.81;100369.13;432523;1271;111612;-40
2022/03/10 20:05:47;;;;;;;39.70;17.70;;;;;;;-2.69;48.02;100370.02;432521;1271;108834;-40
2022/03/10 20:26:01;;;;;;;38.30;18.20;;;;;;;-2.90;48.40;100381.79;432640;1271;111166;-40
2022/03/10 20:36:08;;;;;;;48.40;18.10;;;;;;;-2.99;48.98;100383.46;432659;1271;108896;-39
2022/03/10 20:46:15;;;;;;;42.80;18.70;;;;;;;-3.09;49.11;100383.57;432624;1271;96700;-39
2022/03/10 20:56:24;;;;;;;50.70;19.20;;;;;;;-3.23;49.55;100382.41;432440;1271;111507;-40
2022/03/10 21:06:31;;;;;;;44.80;18.20;;;;;;;-3.33;49.71;100373.77;428522;1271;5540061;-44
2022/03/10 21:16:38;;;;;;;56.40;21.70;;;;;;;-3.46;50.06;100378.53;432593;1272;96693;-42
2022/03/10 21:26:46;;;;;;;48.00;19.80;;;;;;;-3.55;50.43;100382.41;432409;1272;111156;-40
2022/03/10 21:36:53;;;;;;;;;;;;;;;-3.64;50.79;100390.36;432516;1272;108818;-40
2022/03/10 21:47:04;;;;;;;45.60;18.60;;;;;;;-3.77;50.82;100393.26;432749;1271;97540;-39
2022/03/10 21:57:12;;;;;;;50.70;21.30;;;;;;;-3.84;51.35;100388.33;432485;1271;110288;-40
2022/03/10 22:07:19;;;;;;;47.30;21.10;;;;;;;-3.95;51.60;100387.67;432331;1271;108897;-40
2022/03/10 22:17:27;;;;;;;51.00;21.90;;;;;;;-4.04;52.05;100389.95;432444;1271;97552;-41
2022/03/10 22:27:35;;;;;;;51.90;23.10;;;;;;;-4.07;52.15;100389.08;432631;1271;111180;-44
2022/03/10 22:37:41;;;;;;;49.40;17.90;;;;;;;-4.12;52.42;100389.77;432466;1271;108166;-40
2022/03/10 22:47:48;;;;;;;94.60;28.70;;;;;;;-4.16;52.66;100393.42;432509;1271;96636;-41
2022/03/10 22:57:55;;;;;;;74.00;23.60;;;;;;;-4.29;52.71;100396.10;432524;1272;111087;-39
2022/03/10 23:08:02;;;;;;;77.10;25.50;;;;;;;-4.39;53.03;100391.91;432413;1271;108910;-41
2022/03/10 23:18:08;;;;;;;61.60;23.10;;;;;;;-4.51;53.25;100394.70;432304;1271;96686;-39
2022/03/10 23:28:16;;;;;;;76.00;25.30;;;;;;;-4.65;53.55;100393.98;432406;1271;110942;-40
2022/03/10 23:38:22;;;;;;;39.90;16.70;;;;;;;-4.71;53.91;100402.05;432367;1273;108670;-40
2022/03/10 23:48:29;;;;;;;42.40;17.60;;;;;;;-4.63;54.09;100398.70;432486;1272;97929;-41
2022/03/10 23:58:37;;;;;;;32.80;16.10;;;;;;;-4.58;54.37;100397.52;432531;1273;110951;-44
